Flight Track Log - Related Links

Times and Time Zones

All times are in EDT time to prevent confusion due to time zone crossing. See the TMC875 flight status page for this flight to view local times or setup timezone preferences in your user account.

Time Position Orientation Groundspeed Altitude Reporting Facility
EDT Latitude Longitude Course Direction KTS MPH feet Rate Location/Type
Thu 05:31:05 PM 42.3500 -71.0167 144° Southeast 195 224 800  Level KA90
Thu 05:31:53 PM 42.3167 -70.9833 144° Southeast 246 283 4,000 2,333 Climbing KA90
Thu 05:32:53 PM 42.3167 -70.8833 90° East 288 331 5,000 1,750 Climbing KA90
Thu 05:33:53 PM 42.3333 -70.7833 77° East 297 342 7,500 2,707 Climbing KA90
Thu 05:34:15 PM 42.3106 -70.7472 130° Southeast 299 344 8,700 3,750 Climbing Boston Center
Thu 05:35:13 PM 42.2394 -70.7294 170° South 275 316 12,500 3,529 Climbing Boston Center
Thu 05:36:14 PM 42.1883 -70.7925 222° Southwest 214 246 15,700 1,721 Climbing Boston Center
Thu 05:37:15 PM 42.1836 -70.9019 267° West 225 259 16,000 149 Climbing Boston Center
Thu 05:38:15 PM 42.1833 -71.0336 270° West 325 374 16,000  Level Boston Center
Thu 05:39:13 PM 42.1847 -71.1511 271° West 346 398 16,000  Level Boston Center
Thu 05:40:14 PM 42.1819 -71.2886 268° West 346 398 16,000  Level Boston Center
Thu 05:41:15 PM 42.1811 -71.4006 269° West 346 398 16,000  Level Boston Center
Thu 05:42:13 PM 42.1800 -71.5353 269° West 341 392 16,000  Level Boston Center
Thu 05:43:14 PM 42.1808 -71.6556 271° West 334 384 16,000  Level Boston Center
Thu 05:44:14 PM 42.1794 -71.7678 269° West 334 384 16,000  Level Boston Center
Thu 05:45:27 PM 42.1742 -71.9303 268° West 327 376 16,000  Level Boston Center
Thu 05:46:25 PM 42.1725 -72.0422 269° West 337 388 16,000  Level Boston Center
Thu 05:47:25 PM 42.1708 -72.1767 269° West 331 381 16,000  Level Boston Center
Thu 05:48:26 PM 42.1689 -72.2889 269° West 331 381 16,000  Level Boston Center
Thu 05:49:26 PM 42.1669 -72.4261 269° West 326 375 16,000  Level Boston Center
Thu 05:50:27 PM 42.1650 -72.5353 269° West 332 382 16,000  Level Boston Center
Thu 05:51:27 PM 42.1625 -72.6697 269° West 325 374 16,000  Level Boston Center
Thu 05:52:25 PM 42.1561 -72.7931 266° West 325 374 16,000  Level Boston Center
Thu 05:53:25 PM 42.1494 -72.9050 265° West 330 380 16,000  Level Boston Center
Thu 05:54:25 PM 42.1403 -73.0364 265° West 330 380 16,000  Level Boston Center
Thu 05:55:26 PM 42.1336 -73.1483 265° West 335 386 16,000  Level Boston Center
Thu 05:56:27 PM 42.1242 -73.2856 265° West 335 386 16,000 -504 Level Boston Center
Thu 05:57:25 PM 42.1150 -73.3972 264° West 335 386 15,000 -1,059 Descending Boston Center
Thu 05:58:26 PM 42.1078 -73.5175 265° West 335 386 13,900 -541 Descending Boston Center
Thu 05:59:27 PM 42.0981 -73.6375 264° West 329 379 13,900  Level Boston Center
Thu 06:00:27 PM 42.0883 -73.7633 264° West 321 369 13,900  Level Boston Center
Thu 06:01:24 PM 42.0808 -73.8694 265° West 316 364 13,900  Level Boston Center
Thu 06:02:25 PM 42.0708 -73.9950 264° West 310 357 13,900 -135 Level Boston Center
Thu 06:03:37 PM 42.0606 -74.1347 264° West 310 357 13,600 -582 Descending Boston Center
Thu 06:04:39 PM 42.0528 -74.2322 264° West 310 357 12,600 -1,150 Descending Boston Center
Thu 06:05:37 PM 42.0156 -74.3431 246° West 303 349 11,300 -1,311 Descending Boston Center
Thu 06:06:38 PM 41.9542 -74.3886 209° Southwest 279 321 10,000 -1,289 Descending Boston Center
Thu 06:07:38 PM 41.8867 -74.4367 208° Southwest 268 308 8,700 -1,240 Descending Boston Center
Thu 06:08:39 PM 41.8319 -74.4769 209° Southwest 258 297 7,500 -857 Descending Boston Center
Thu 06:09:37 PM 41.7664 -74.5219 207° Southwest 246 283 7,000 -252 Descending Boston Center
Thu 06:10:38 PM 41.7078 -74.5342 189° South 241 277 7,000  Level Boston Center
Thu 06:11:38 PM 41.6347 -74.5483 188° South 241 277 7,000 -248 Level Boston Center
Thu 06:12:39 PM 41.5761 -74.5603 189° South 241 277 6,500 -496 Descending Boston Center
Thu 06:13:39 PM 41.5028 -74.5744 188° South 241 277 6,000 -254 Descending Boston Center
Thu 06:14:37 PM 41.4464 -74.5836 187° South 241 277 6,000 34 Level Boston Center
Thu 06:16:35 PM 41.3167 -74.6000 185° South 246 283 6,100 -67 Climbing New York TRACON
Thu 06:17:35 PM 41.2667 -74.5167 129° Southeast 269 310 5,800 -650 Descending New York TRACON
Thu 06:18:35 PM 41.2333 -74.4333 118° Southeast 262 302 4,800 -1,100 Descending New York TRACON
Thu 06:19:35 PM 41.1833 -74.3500 129° Southeast 267 307 3,600 -900 Descending New York TRACON
Thu 06:20:35 PM 41.1500 -74.2833 124° Southeast 238 274 3,000 -300 Descending New York TRACON
Thu 06:21:35 PM 41.1167 -74.2167 124° Southeast 199 229 3,000  Level New York TRACON
Thu 06:22:35 PM 41.1000 -74.1667 114° Southeast 170 196 3,000 -100 Level New York TRACON
Thu 06:23:35 PM 41.0833 -74.1167 114° Southeast 181 208 2,800 -476 Descending New York TRACON
Thu 06:24:41 PM 41.0500 -74.0667 131° Southeast 156 180 2,000 -381 Descending New York TRACON
Thu 06:25:41 PM 41.0000 -74.0500 166° South 163 188 2,000  Level New York TRACON

Login

Don't have an account? Register now (free) for customized features, flight alerts, and more!